createdAt,value
2017-10-19T00:01:40.608Z,18.02
2017-10-19T00:04:08.150Z,18.17
2017-10-19T00:06:35.727Z,17.65
2017-10-19T00:09:03.269Z,17.58
2017-10-19T00:11:30.903Z,18.62
2017-10-19T00:13:58.442Z,19.85
2017-10-19T00:16:26.028Z,19.80
2017-10-19T00:18:53.616Z,21.30
2017-10-19T00:21:21.254Z,20.25
2017-10-19T00:23:48.847Z,20.98
2017-10-19T00:26:17.073Z,20.35
2017-10-19T00:28:44.618Z,21.17
2017-10-19T00:31:13.007Z,19.83
2017-10-19T00:33:40.589Z,20.77
2017-10-19T00:36:11.856Z,20.75
2017-10-19T00:38:39.428Z,19.70
2017-10-19T00:41:06.965Z,19.52
2017-10-19T00:43:35.044Z,21.70
2017-10-19T00:46:02.584Z,21.23
2017-10-19T00:48:30.225Z,22.15
2017-10-19T00:50:58.564Z,20.10
2017-10-19T00:53:26.100Z,20.27
2017-10-19T00:55:53.678Z,17.70
2017-10-19T00:58:21.220Z,16.05
2017-10-19T01:00:48.864Z,16.65
2017-10-19T01:03:16.404Z,16.87
2017-10-19T01:05:45.138Z,16.90
2017-10-19T01:08:12.678Z,19.08
2017-10-19T01:10:40.208Z,20.67
2017-10-19T01:13:08.572Z,21.30
2017-10-19T01:15:36.879Z,22.95
2017-10-19T01:18:04.416Z,21.27
2017-10-19T01:20:32.821Z,17.58
2017-10-19T01:23:00.369Z,17.00
2017-10-19T01:25:28.081Z,13.77
2017-10-19T01:27:55.653Z,15.80
2017-10-19T01:30:23.205Z,17.10
2017-10-19T01:32:50.780Z,17.45
2017-10-19T01:35:18.320Z,17.15
2017-10-19T01:37:45.962Z,18.90
2017-10-19T01:40:13.552Z,18.75
2017-10-19T01:42:41.092Z,19.05
2017-10-19T01:45:08.957Z,20.17
2017-10-19T01:47:36.680Z,20.58
2017-10-19T01:50:05.005Z,21.52
2017-10-19T01:52:32.580Z,21.25
2017-10-19T01:55:00.220Z,22.13
2017-10-19T01:57:27.761Z,20.50
2017-10-19T01:59:55.337Z,21.25
2017-10-19T02:02:22.878Z,21.70
2017-10-19T02:04:50.916Z,21.10
2017-10-19T02:07:19.228Z,20.52
2017-10-19T02:09:46.784Z,20.80
2017-10-19T02:12:14.641Z,20.65
2017-10-19T02:14:42.172Z,21.45
2017-10-19T02:17:09.769Z,22.02
2017-10-19T02:19:37.306Z,21.25
2017-10-19T02:22:05.644Z,23.27
2017-10-19T02:24:33.181Z,22.23
2017-10-19T02:27:00.877Z,23.85
2017-10-19T02:29:28.410Z,21.98
2017-10-19T02:31:56.799Z,22.48
2017-10-19T02:34:24.334Z,23.20
2017-10-19T02:36:51.877Z,23.50
2017-10-19T02:39:20.601Z,23.70
2017-10-19T02:41:48.138Z,23.48
2017-10-19T02:44:15.672Z,23.23
2017-10-19T02:46:44.152Z,23.62
2017-10-19T02:49:12.597Z,22.30
2017-10-19T02:51:40.132Z,22.33
2017-10-19T02:54:07.716Z,24.20
2017-10-19T02:56:35.262Z,22.25
2017-10-19T02:59:02.828Z,21.12
2017-10-19T03:01:30.364Z,22.95
2017-10-19T03:03:57.999Z,19.20
2017-10-19T03:06:26.297Z,21.27
2017-10-19T03:08:54.219Z,22.83
2017-10-19T03:11:21.755Z,22.33
2017-10-19T03:13:49.288Z,23.35
2017-10-19T03:16:17.633Z,23.80
2017-10-19T03:18:45.978Z,23.98
2017-10-19T03:21:13.737Z,24.65
2017-10-19T03:23:41.322Z,23.42
2017-10-19T03:26:08.862Z,23.20
2017-10-19T03:28:36.577Z,25.25
2017-10-19T03:31:04.292Z,23.55
2017-10-19T03:33:31.832Z,23.98
2017-10-19T03:35:59.401Z,24.20
2017-10-19T03:38:26.936Z,25.40
2017-10-19T03:40:54.720Z,23.52
2017-10-19T03:43:22.253Z,22.70
2017-10-19T03:45:49.832Z,22.52
2017-10-19T03:48:17.365Z,24.25
2017-10-19T03:50:44.940Z,22.75
2017-10-19T03:53:12.523Z,22.87
2017-10-19T03:55:40.061Z,23.25
2017-10-19T03:58:07.720Z,22.25
2017-10-19T04:00:35.277Z,21.58
2017-10-19T04:03:02.860Z,22.13
2017-10-19T04:05:30.435Z,22.20
2017-10-19T04:07:58.008Z,22.40
2017-10-19T04:10:25.576Z,23.35
2017-10-19T04:12:53.112Z,24.85
2017-10-19T04:15:20.813Z,24.10
2017-10-19T04:17:49.108Z,25.20
2017-10-19T04:20:17.448Z,23.95
2017-10-19T04:22:44.988Z,24.73
2017-10-19T04:25:12.955Z,24.45
2017-10-19T04:27:40.510Z,22.83
2017-10-19T04:30:08.044Z,22.67
2017-10-19T04:32:36.362Z,24.58
2017-10-19T04:35:03.900Z,23.15
2017-10-19T04:37:31.435Z,24.67
2017-10-19T04:39:59.049Z,24.25
2017-10-19T04:42:27.004Z,23.90
2017-10-19T04:44:54.532Z,23.30
2017-10-19T04:47:22.072Z,21.70
2017-10-19T04:49:50.561Z,23.85
2017-10-19T04:52:18.140Z,23.83
2017-10-19T04:54:46.435Z,23.45
2017-10-19T04:57:14.007Z,22.95
2017-10-19T04:59:41.580Z,22.13
2017-10-19T05:02:09.116Z,23.10
2017-10-19T05:04:36.696Z,23.55
2017-10-19T05:07:07.417Z,23.27
2017-10-19T05:09:34.969Z,23.65
2017-10-19T05:12:02.503Z,22.75
2017-10-19T05:14:30.081Z,23.12
2017-10-19T05:16:57.877Z,23.08
2017-10-19T05:19:26.248Z,23.05
2017-10-19T05:21:53.786Z,25.35
2017-10-19T05:24:22.888Z,24.15
2017-10-19T05:26:50.419Z,23.58
2017-10-19T05:29:18.948Z,24.20
2017-10-19T05:31:46.497Z,23.15
2017-10-19T05:34:18.153Z,23.42
2017-10-19T05:36:45.687Z,23.70
2017-10-19T05:39:13.224Z,23.00
2017-10-19T05:41:45.641Z,23.48
2017-10-19T05:44:13.177Z,24.05
2017-10-19T05:46:40.731Z,23.35
2017-10-19T05:49:08.727Z,24.75
2017-10-19T05:51:37.069Z,24.73
2017-10-19T05:54:05.371Z,24.40
2017-10-19T05:56:32.944Z,24.75
2017-10-19T05:59:00.482Z,25.60
2017-10-19T06:01:28.013Z,26.45
2017-10-19T06:03:56.491Z,24.17
2017-10-19T06:06:24.803Z,23.27
2017-10-19T06:08:52.332Z,21.40
2017-10-19T06:11:20.676Z,19.48
2017-10-19T06:13:48.232Z,21.40
2017-10-19T06:16:15.821Z,21.42
2017-10-19T06:18:44.597Z,20.60
2017-10-19T06:21:12.136Z,23.42
2017-10-19T06:23:39.668Z,21.58
2017-10-19T06:26:07.396Z,23.17
2017-10-19T06:28:35.738Z,21.65
2017-10-19T06:31:03.307Z,22.75
2017-10-19T06:33:30.849Z,18.45
2017-10-19T06:35:58.534Z,22.00
2017-10-19T06:38:26.072Z,21.02
2017-10-19T06:40:53.776Z,19.65
2017-10-19T06:43:21.330Z,22.48
2017-10-19T06:45:48.904Z,21.75
2017-10-19T06:48:17.204Z,21.67
2017-10-19T06:50:45.098Z,20.48
2017-10-19T06:53:12.643Z,21.65
2017-10-19T06:55:40.217Z,21.37
2017-10-19T06:58:07.756Z,21.75
2017-10-19T07:00:36.773Z,21.62
2017-10-19T07:03:05.073Z,22.77
2017-10-19T07:05:33.438Z,22.90
2017-10-19T07:08:00.977Z,23.48
2017-10-19T07:10:28.508Z,37.53
2017-10-19T07:12:56.872Z,75.12
2017-10-19T07:15:25.188Z,66.10
2017-10-19T07:17:52.847Z,40.78
2017-10-19T07:20:20.402Z,35.95
2017-10-19T07:22:47.977Z,41.70
2017-10-19T07:25:18.527Z,23.42
2017-10-19T07:27:46.069Z,24.42
2017-10-19T07:30:13.894Z,21.12
2017-10-19T07:32:42.245Z,34.72
2017-10-19T07:35:10.293Z,28.30
2017-10-19T07:37:37.833Z,19.20
2017-10-19T07:40:05.399Z,20.35
2017-10-19T07:42:33.292Z,20.00
2017-10-19T07:45:00.859Z,22.02
2017-10-19T07:47:28.394Z,23.23
2017-10-19T07:49:55.972Z,22.45
2017-10-19T07:52:23.726Z,23.42
2017-10-19T07:54:52.030Z,25.00
2017-10-19T07:57:19.893Z,25.12
2017-10-19T07:59:47.457Z,28.73
2017-10-19T08:02:14.999Z,28.42
2017-10-19T08:04:42.848Z,23.98
2017-10-19T08:07:10.388Z,24.00
2017-10-19T08:09:37.920Z,23.70
2017-10-19T08:12:06.672Z,26.45
2017-10-19T08:14:34.216Z,26.40
2017-10-19T08:17:01.752Z,25.58
2017-10-19T08:19:29.327Z,23.95
2017-10-19T08:21:57.151Z,25.85
2017-10-19T08:24:24.706Z,23.83
2017-10-19T08:26:52.247Z,24.08
2017-10-19T08:29:19.891Z,23.45
2017-10-19T08:31:47.552Z,23.80
2017-10-19T08:34:15.121Z,23.25
2017-10-19T08:36:42.702Z,21.87
2017-10-19T08:39:10.285Z,23.02
2017-10-19T08:41:38.624Z,22.83
2017-10-19T08:44:06.156Z,22.60
2017-10-19T08:46:33.808Z,22.48
2017-10-19T08:49:01.340Z,22.30
2017-10-19T08:51:29.687Z,21.80
2017-10-19T08:53:57.229Z,22.73
2017-10-19T08:56:24.819Z,21.73
2017-10-19T08:58:52.360Z,22.05
2017-10-19T09:01:20.063Z,21.75
2017-10-19T09:03:48.368Z,22.37
2017-10-19T09:06:15.905Z,21.75
2017-10-19T09:08:44.385Z,20.20
2017-10-19T09:11:13.135Z,21.10
2017-10-19T09:13:40.735Z,21.52
2017-10-19T09:16:09.037Z,20.35
2017-10-19T09:18:36.632Z,20.37
2017-10-19T09:21:04.167Z,20.55
2017-10-19T09:23:31.738Z,20.30
2017-10-19T09:25:59.269Z,19.30
2017-10-19T09:28:26.992Z,21.08
2017-10-19T09:30:54.787Z,19.55
2017-10-19T09:33:23.136Z,19.77
2017-10-19T09:35:50.672Z,18.45
2017-10-19T09:38:18.265Z,19.25
2017-10-19T09:40:45.799Z,20.60
2017-10-19T09:43:13.327Z,20.62
2017-10-19T09:45:41.516Z,19.15
2017-10-19T09:48:10.212Z,20.20
2017-10-19T09:50:37.774Z,19.90
2017-10-19T09:53:05.744Z,19.10
2017-10-19T09:55:33.281Z,18.67
2017-10-19T09:58:00.865Z,19.87
2017-10-19T10:00:28.528Z,18.85
2017-10-19T10:02:56.062Z,20.10
2017-10-19T10:05:23.595Z,19.30
2017-10-19T10:07:51.941Z,18.92
2017-10-19T10:10:19.510Z,19.00
2017-10-19T10:12:47.220Z,18.40
2017-10-19T10:15:14.774Z,17.77
2017-10-19T10:17:42.422Z,17.95
2017-10-19T10:20:10.726Z,18.12
2017-10-19T10:22:39.095Z,17.55
2017-10-19T10:25:06.640Z,17.25
2017-10-19T10:27:35.176Z,17.80
2017-10-19T10:30:03.227Z,17.20
2017-10-19T10:32:31.083Z,17.42
2017-10-19T10:34:58.620Z,17.98
2017-10-19T10:37:26.932Z,17.58
2017-10-19T10:39:55.012Z,17.77
2017-10-19T10:42:22.555Z,16.77
2017-10-19T10:44:50.100Z,16.90
2017-10-19T10:47:17.682Z,16.75
2017-10-19T10:49:46.039Z,16.83
2017-10-19T10:52:13.582Z,16.40
2017-10-19T10:54:41.133Z,15.38
2017-10-19T10:57:09.788Z,14.75
2017-10-19T10:59:37.715Z,15.23
2017-10-19T11:02:05.493Z,14.00
2017-10-19T11:04:33.033Z,14.45
2017-10-19T11:07:00.921Z,14.77
2017-10-19T11:09:28.486Z,14.20
2017-10-19T11:11:56.032Z,14.00
2017-10-19T11:14:24.227Z,13.90
2017-10-19T11:16:51.800Z,14.37
2017-10-19T11:19:19.357Z,13.95
2017-10-19T11:21:46.952Z,13.45
2017-10-19T11:24:15.295Z,15.85
2017-10-19T11:26:42.834Z,15.00
2017-10-19T11:29:10.423Z,14.60
2017-10-19T11:31:40.618Z,13.97
2017-10-19T11:34:08.325Z,13.50
2017-10-19T11:36:35.878Z,13.87
2017-10-19T11:39:03.460Z,13.93
2017-10-19T11:41:31.772Z,13.60
2017-10-19T11:43:59.769Z,14.27
2017-10-19T11:46:27.316Z,15.50
2017-10-19T11:48:55.624Z,14.70
2017-10-19T11:51:23.298Z,13.83
2017-10-19T11:53:51.623Z,14.10
2017-10-19T11:56:19.208Z,14.00
2017-10-19T11:58:46.752Z,13.70
2017-10-19T12:01:14.328Z,13.43
2017-10-19T12:03:41.870Z,13.47
2017-10-19T12:06:09.476Z,13.00
2017-10-19T12:08:37.008Z,14.00
2017-10-19T12:11:04.549Z,13.07
2017-10-19T12:13:32.214Z,13.90
2017-10-19T12:15:59.755Z,13.00
2017-10-19T12:18:27.452Z,13.00
2017-10-19T12:20:54.995Z,13.57
2017-10-19T12:23:22.568Z,13.70
2017-10-19T12:25:50.106Z,14.20
2017-10-19T12:28:17.688Z,12.80
2017-10-19T12:30:45.230Z,13.57
2017-10-19T12:33:13.129Z,14.17
2017-10-19T12:35:40.669Z,14.10
2017-10-19T12:38:08.252Z,14.33
2017-10-19T12:40:35.790Z,13.73
2017-10-19T12:43:03.458Z,12.93
2017-10-19T12:45:30.996Z,13.63
2017-10-19T12:47:58.890Z,12.80
2017-10-19T12:50:26.430Z,14.10
2017-10-19T12:52:53.963Z,13.90
2017-10-19T12:55:22.586Z,13.80
2017-10-19T12:57:50.121Z,14.00
2017-10-19T13:00:17.664Z,13.80
2017-10-19T13:02:46.010Z,15.00
2017-10-19T13:05:13.590Z,13.20
2017-10-19T13:07:41.903Z,13.93
2017-10-19T13:10:09.478Z,13.13
2017-10-19T13:12:37.121Z,12.90
2017-10-19T13:15:04.717Z,13.03
2017-10-19T13:17:46.796Z,12.87
2017-10-19T13:20:15.045Z,12.80
2017-10-19T13:22:43.348Z,13.53
2017-10-19T13:25:10.920Z,14.00
2017-10-19T13:27:38.652Z,13.07
2017-10-19T13:30:06.556Z,13.20
2017-10-19T13:32:34.115Z,14.33
2017-10-19T13:35:02.081Z,12.77
2017-10-19T13:37:29.621Z,12.93
2017-10-19T13:39:57.158Z,12.70
2017-10-19T13:42:26.006Z,12.53
2017-10-19T13:44:53.544Z,11.57
2017-10-19T13:47:21.089Z,12.63
2017-10-19T13:49:48.674Z,12.47
2017-10-19T13:52:16.217Z,13.70
2017-10-19T13:54:44.093Z,12.20
2017-10-19T13:57:11.643Z,13.00
2017-10-19T13:59:39.185Z,12.20
2017-10-19T14:02:10.925Z,12.80
2017-10-19T14:04:39.237Z,12.93
2017-10-19T14:07:15.971Z,12.47
2017-10-19T14:10:01.362Z,13.23
2017-10-19T14:12:38.079Z,13.70
2017-10-19T14:26:50.141Z,12.50
2017-10-19T14:29:17.866Z,12.47
2017-10-19T14:31:46.180Z,13.03
2017-10-19T14:34:13.870Z,11.47
2017-10-19T14:36:41.446Z,12.47
2017-10-19T14:39:09.794Z,12.80
2017-10-19T14:41:37.382Z,11.20
2017-10-19T14:44:04.933Z,11.23
2017-10-19T14:46:32.526Z,11.57
2017-10-19T14:49:00.858Z,11.57
2017-10-19T14:51:28.827Z,12.20
2017-10-19T14:53:56.383Z,10.33
2017-10-19T14:56:24.377Z,11.37
2017-10-19T14:58:51.929Z,11.53
2017-10-19T15:01:19.469Z,11.10
2017-10-19T15:03:47.060Z,11.07
2017-10-19T15:06:14.712Z,10.63
2017-10-19T15:08:42.258Z,12.10
2017-10-19T15:11:09.850Z,10.10
2017-10-19T15:13:37.399Z,10.50
2017-10-19T15:16:04.994Z,11.00
2017-10-19T15:18:33.307Z,10.70
2017-10-19T15:21:00.901Z,10.80
2017-10-19T15:23:33.896Z,11.80
2017-10-19T15:26:01.496Z,11.30
2017-10-19T15:28:29.045Z,11.20
2017-10-19T15:30:57.826Z,11.47
2017-10-19T15:33:26.134Z,11.13
2017-10-19T15:35:53.683Z,10.87
2017-10-19T15:38:21.282Z,11.27
2017-10-19T15:40:48.831Z,11.20
2017-10-19T15:43:16.489Z,11.30
2017-10-19T15:45:44.150Z,11.83
2017-10-19T15:48:12.038Z,11.63
2017-10-19T15:50:51.456Z,11.95
2017-10-19T15:53:19.356Z,12.00
2017-10-19T15:55:46.905Z,11.73
2017-10-19T15:58:14.449Z,12.20
2017-10-19T16:00:42.122Z,12.02
2017-10-19T16:03:09.679Z,12.20
2017-10-19T16:05:37.637Z,11.73
2017-10-19T16:08:05.202Z,12.98
2017-10-19T16:10:32.751Z,12.23
2017-10-19T16:13:00.657Z,12.40
2017-10-19T16:15:28.216Z,12.55
2017-10-19T16:17:55.987Z,13.13
2017-10-19T16:20:23.588Z,13.30
2017-10-19T16:22:51.174Z,13.43
2017-10-19T16:25:19.506Z,12.80
2017-10-19T16:27:47.869Z,13.45
2017-10-19T16:30:15.938Z,14.75
2017-10-19T16:32:43.822Z,15.43
2017-10-19T16:35:12.168Z,13.52
2017-10-19T16:37:39.730Z,13.77
2017-10-19T16:40:07.599Z,12.65
2017-10-19T16:42:35.356Z,13.60
2017-10-19T16:45:02.913Z,12.55
2017-10-19T16:47:30.467Z,12.52
2017-10-19T16:49:58.056Z,13.60
2017-10-19T16:52:25.650Z,13.55
2017-10-19T16:54:53.276Z,13.48
2017-10-19T16:57:21.014Z,13.70
2017-10-19T16:59:48.569Z,13.57
2017-10-19T17:02:16.420Z,13.15
2017-10-19T17:04:43.969Z,15.18
2017-10-19T17:07:11.520Z,14.63
2017-10-19T17:09:39.256Z,13.43
2017-10-19T17:12:06.812Z,13.80
2017-10-19T17:14:34.662Z,14.38
2017-10-19T17:17:02.206Z,14.63
2017-10-19T17:19:30.195Z,14.63
2017-10-19T17:21:57.781Z,13.70
2017-10-19T17:24:26.117Z,13.43
2017-10-19T17:26:53.715Z,13.23
2017-10-19T17:29:21.880Z,14.45
2017-10-19T17:31:49.537Z,14.52
2017-10-19T17:34:17.107Z,14.25
2017-10-19T17:36:44.711Z,13.95
2017-10-19T17:39:12.280Z,14.18
2017-10-19T17:41:39.889Z,14.55
2017-10-19T17:44:07.440Z,14.50
2017-10-19T17:46:35.015Z,15.52
2017-10-19T17:49:03.678Z,14.63
2017-10-19T17:51:31.385Z,15.25
2017-10-19T17:53:59.737Z,14.95
2017-10-19T17:56:27.287Z,15.82
2017-10-19T17:58:54.879Z,15.40
2017-10-19T18:01:23.202Z,16.10
2017-10-19T18:03:51.772Z,15.98
2017-10-19T18:06:19.507Z,15.82
2017-10-19T18:08:47.173Z,15.15
2017-10-19T18:11:15.497Z,16.73
2017-10-19T18:13:43.050Z,16.40
2017-10-19T18:16:10.948Z,16.02
2017-10-19T18:18:38.524Z,15.52
2017-10-19T18:21:06.972Z,16.48
2017-10-19T18:23:34.537Z,15.73
2017-10-19T18:26:02.118Z,16.52
2017-10-19T18:28:29.672Z,16.25
2017-10-19T18:30:57.825Z,16.35
2017-10-19T18:33:25.372Z,14.52
2017-10-19T18:35:53.778Z,14.55
2017-10-19T18:38:21.331Z,15.63
2017-10-19T18:40:48.888Z,15.68
2017-10-19T18:43:16.757Z,15.60
2017-10-19T18:45:44.347Z,15.15
2017-10-19T18:48:11.897Z,15.18
2017-10-19T18:50:39.510Z,15.68
2017-10-19T18:53:07.092Z,16.75
2017-10-19T18:55:34.649Z,15.80
2017-10-19T18:58:02.298Z,16.65
2017-10-19T19:00:29.847Z,16.40
2017-10-19T19:02:57.442Z,16.37
2017-10-19T19:05:26.430Z,15.65
2017-10-19T19:07:53.994Z,16.12
2017-10-19T19:10:22.454Z,16.30
2017-10-19T19:12:50.046Z,16.12
2017-10-19T19:15:18.082Z,17.05
2017-10-19T19:17:45.649Z,16.92
2017-10-19T19:20:13.222Z,17.10
2017-10-19T19:22:40.874Z,16.70
2017-10-19T19:25:08.464Z,16.40
2017-10-19T19:27:36.013Z,16.65
2017-10-19T19:30:03.631Z,16.25
2017-10-19T19:32:31.768Z,17.23
2017-10-19T19:34:59.533Z,17.52
2017-10-19T19:37:27.086Z,17.15
2017-10-19T19:39:54.630Z,17.23
2017-10-19T19:42:22.227Z,17.87
2017-10-19T19:44:50.629Z,17.52
2017-10-19T19:47:18.251Z,16.52
2017-10-19T19:49:51.230Z,17.00
2017-10-19T19:52:18.782Z,16.80
2017-10-19T19:54:46.329Z,17.00
2017-10-19T19:57:13.943Z,16.75
2017-10-19T19:59:41.490Z,16.83
2017-10-19T20:02:09.809Z,16.65
2017-10-19T20:04:37.395Z,16.90
2017-10-19T20:07:04.951Z,17.85
2017-10-19T20:09:33.832Z,15.63
2017-10-19T20:12:01.415Z,17.73
2017-10-19T20:14:29.157Z,16.42
2017-10-19T20:16:56.713Z,16.50
2017-10-19T20:19:25.069Z,17.50
2017-10-19T20:21:52.614Z,16.80
2017-10-19T20:24:21.561Z,17.00
2017-10-19T20:26:49.138Z,16.70
2017-10-19T20:29:17.446Z,16.90
2017-10-19T20:31:45.141Z,16.50
2017-10-19T20:34:12.775Z,16.85
2017-10-19T20:36:40.323Z,16.45
2017-10-19T20:39:07.952Z,17.05
2017-10-19T20:41:36.271Z,16.52
2017-10-19T20:44:03.861Z,16.87
2017-10-19T20:46:31.821Z,16.58
2017-10-19T20:48:59.470Z,15.88
2017-10-19T20:51:27.158Z,15.77
2017-10-19T20:53:54.798Z,16.55
2017-10-19T20:56:22.337Z,17.05
2017-10-19T20:58:49.930Z,16.17
2017-10-19T21:01:17.481Z,16.20
2017-10-19T21:03:45.326Z,15.93
2017-10-19T21:06:12.879Z,15.68
2017-10-19T21:08:40.425Z,16.50
2017-10-19T21:11:12.897Z,15.32
2017-10-19T21:13:41.539Z,15.30
2017-10-19T21:16:09.082Z,15.93
2017-10-19T21:18:36.626Z,15.23
2017-10-19T21:21:04.214Z,15.40
2017-10-19T21:23:31.768Z,15.23
2017-10-19T21:26:00.878Z,15.25
2017-10-19T21:28:28.602Z,14.93
2017-10-19T21:30:56.486Z,15.32
2017-10-19T21:33:24.029Z,15.02
2017-10-19T21:35:51.575Z,14.85
2017-10-19T21:38:20.413Z,15.02
2017-10-19T21:40:47.967Z,14.70
2017-10-19T21:43:15.515Z,15.40
2017-10-19T21:45:43.521Z,14.95
2017-10-19T21:48:11.062Z,14.70
2017-10-19T21:50:38.609Z,16.15
2017-10-19T21:53:06.490Z,15.40
2017-10-19T21:55:34.039Z,15.35
2017-10-19T21:58:01.583Z,14.77
2017-10-19T22:00:29.169Z,14.98
2017-10-19T22:02:56.822Z,14.85
2017-10-19T22:05:24.366Z,14.30
2017-10-19T22:07:51.950Z,14.75
2017-10-19T22:10:19.490Z,14.90
2017-10-19T22:12:49.946Z,14.18
2017-10-19T22:15:17.485Z,13.75
2017-10-19T22:17:45.060Z,13.38
2017-10-19T22:20:12.704Z,14.57
2017-10-19T22:22:40.253Z,13.38
2017-10-19T22:25:07.830Z,13.50
2017-10-19T22:27:35.369Z,13.50
2017-10-19T22:30:03.374Z,13.93
2017-10-19T22:32:31.298Z,14.05
2017-10-19T22:34:58.841Z,13.80
2017-10-19T22:37:27.377Z,14.05
2017-10-19T22:39:54.970Z,14.20
2017-10-19T22:42:22.510Z,13.48
2017-10-19T22:44:50.055Z,13.05
2017-10-19T22:47:18.038Z,13.73
2017-10-19T22:49:45.582Z,12.30
2017-10-19T22:52:13.125Z,13.48
2017-10-19T22:54:42.317Z,11.95
2017-10-19T22:57:09.865Z,13.68
2017-10-19T22:59:37.409Z,12.93
2017-10-19T23:02:05.761Z,12.70
2017-10-19T23:04:36.998Z,12.50
2017-10-19T23:07:04.542Z,11.88
2017-10-19T23:09:32.238Z,12.18
2017-10-19T23:11:59.780Z,12.13
2017-10-19T23:14:27.490Z,10.85
2017-10-19T23:16:55.799Z,11.55
2017-10-19T23:19:23.660Z,11.00
2017-10-19T23:21:51.206Z,11.20
2017-10-19T23:24:18.754Z,12.05
2017-10-19T23:26:46.342Z,11.43
2017-10-19T23:29:14.135Z,11.02
2017-10-19T23:31:41.675Z,10.45
2017-10-19T23:34:09.423Z,11.00
2017-10-19T23:36:36.974Z,11.35
2017-10-19T23:39:04.556Z,12.15
2017-10-19T23:41:32.098Z,10.25
2017-10-19T23:43:59.754Z,11.43
2017-10-19T23:46:28.100Z,10.90
2017-10-19T23:48:55.643Z,10.82
2017-10-19T23:51:23.229Z,11.10
2017-10-19T23:53:51.617Z,10.90
2017-10-19T23:56:19.923Z,10.35
2017-10-19T23:58:47.467Z,10.65
